sensor_id;sensor_type;location;lat;lon;timestamp;P1;durP1;ratioP1;P2;durP2;ratioP2
17310;SDS011;8773;43.300;0.394;2024-02-23T00:00:00;2.13;;;1.67;;
17310;SDS011;8773;43.300;0.394;2024-02-23T00:02:27;2.33;;;2.10;;
17310;SDS011;8773;43.300;0.394;2024-02-23T00:04:54;1.90;;;1.63;;
17310;SDS011;8773;43.300;0.394;2024-02-23T00:07:23;3.37;;;1.83;;
17310;SDS011;8773;43.300;0.394;2024-02-23T00:09:50;4.53;;;2.07;;
17310;SDS011;8773;43.300;0.394;2024-02-23T00:12:18;2.83;;;1.90;;
17310;SDS011;8773;43.300;0.394;2024-02-23T00:14:45;2.17;;;1.80;;
17310;SDS011;8773;43.300;0.394;2024-02-23T00:17:13;3.30;;;2.13;;
17310;SDS011;8773;43.300;0.394;2024-02-23T00:19:40;3.93;;;2.10;;
17310;SDS011;8773;43.300;0.394;2024-02-23T00:22:07;5.10;;;2.00;;
17310;SDS011;8773;43.300;0.394;2024-02-23T00:24:36;3.73;;;2.40;;
17310;SDS011;8773;43.300;0.394;2024-02-23T00:27:04;4.83;;;2.40;;
17310;SDS011;8773;43.300;0.394;2024-02-23T00:29:31;4.27;;;2.30;;
17310;SDS011;8773;43.300;0.394;2024-02-23T00:31:59;5.30;;;2.37;;
17310;SDS011;8773;43.300;0.394;2024-02-23T00:34:26;5.13;;;2.43;;
17310;SDS011;8773;43.300;0.394;2024-02-23T00:36:53;3.53;;;2.00;;
17310;SDS011;8773;43.300;0.394;2024-02-23T00:39:21;4.13;;;2.70;;
17310;SDS011;8773;43.300;0.394;2024-02-23T00:41:49;4.73;;;2.43;;
17310;SDS011;8773;43.300;0.394;2024-02-23T00:44:17;4.63;;;2.30;;
17310;SDS011;8773;43.300;0.394;2024-02-23T00:46:44;6.40;;;2.70;;
17310;SDS011;8773;43.300;0.394;2024-02-23T00:49:12;4.10;;;2.20;;
17310;SDS011;8773;43.300;0.394;2024-02-23T00:51:39;5.10;;;2.27;;
17310;SDS011;8773;43.300;0.394;2024-02-23T00:54:07;5.27;;;2.40;;
17310;SDS011;8773;43.300;0.394;2024-02-23T00:56:34;4.07;;;2.30;;
17310;SDS011;8773;43.300;0.394;2024-02-23T00:59:17;5.30;;;2.03;;
17310;SDS011;8773;43.300;0.394;2024-02-23T01:01:45;4.77;;;2.70;;
17310;SDS011;8773;43.300;0.394;2024-02-23T01:04:12;5.20;;;2.60;;
17310;SDS011;8773;43.300;0.394;2024-02-23T01:06:40;4.53;;;2.67;;
17310;SDS011;8773;43.300;0.394;2024-02-23T01:09:07;6.77;;;2.37;;
17310;SDS011;8773;43.300;0.394;2024-02-23T01:11:35;7.10;;;2.30;;
17310;SDS011;8773;43.300;0.394;2024-02-23T01:14:02;4.53;;;1.90;;
17310;SDS011;8773;43.300;0.394;2024-02-23T01:16:31;3.50;;;2.07;;
17310;SDS011;8773;43.300;0.394;2024-02-23T01:18:58;5.33;;;2.50;;
17310;SDS011;8773;43.300;0.394;2024-02-23T01:21:26;3.07;;;2.10;;
17310;SDS011;8773;43.300;0.394;2024-02-23T01:23:53;3.67;;;2.00;;
17310;SDS011;8773;43.300;0.394;2024-02-23T01:26:21;3.60;;;2.17;;
17310;SDS011;8773;43.300;0.394;2024-02-23T01:28:48;3.87;;;2.10;;
17310;SDS011;8773;43.300;0.394;2024-02-23T01:31:16;2.10;;;2.00;;
17310;SDS011;8773;43.300;0.394;2024-02-23T01:33:45;4.37;;;2.13;;
17310;SDS011;8773;43.300;0.394;2024-02-23T01:36:12;2.63;;;1.83;;
17310;SDS011;8773;43.300;0.394;2024-02-23T01:38:40;4.13;;;2.23;;
17310;SDS011;8773;43.300;0.394;2024-02-23T01:41:07;3.17;;;2.10;;
17310;SDS011;8773;43.300;0.394;2024-02-23T01:43:34;2.97;;;2.10;;
17310;SDS011;8773;43.300;0.394;2024-02-23T01:46:02;4.13;;;2.13;;
17310;SDS011;8773;43.300;0.394;2024-02-23T01:48:31;3.67;;;1.60;;
17310;SDS011;8773;43.300;0.394;2024-02-23T01:51:01;1.77;;;1.60;;
17310;SDS011;8773;43.300;0.394;2024-02-23T01:53:28;2.27;;;2.03;;
17310;SDS011;8773;43.300;0.394;2024-02-23T01:55:57;3.80;;;2.10;;
17310;SDS011;8773;43.300;0.394;2024-02-23T01:58:28;2.97;;;1.57;;
17310;SDS011;8773;43.300;0.394;2024-02-23T02:00:56;1.93;;;1.40;;
17310;SDS011;8773;43.300;0.394;2024-02-23T02:03:24;3.40;;;1.53;;
17310;SDS011;8773;43.300;0.394;2024-02-23T02:05:52;2.10;;;1.60;;
17310;SDS011;8773;43.300;0.394;2024-02-23T02:08:21;2.93;;;1.60;;
17310;SDS011;8773;43.300;0.394;2024-02-23T02:10:49;3.07;;;1.50;;
17310;SDS011;8773;43.300;0.394;2024-02-23T02:13:17;1.50;;;1.40;;
17310;SDS011;8773;43.300;0.394;2024-02-23T02:15:44;2.23;;;1.90;;
17310;SDS011;8773;43.300;0.394;2024-02-23T02:18:11;2.73;;;1.83;;
17310;SDS011;8773;43.300;0.394;2024-02-23T02:20:39;2.53;;;1.63;;
17310;SDS011;8773;43.300;0.394;2024-02-23T02:23:17;2.27;;;1.57;;
17310;SDS011;8773;43.300;0.394;2024-02-23T02:25:51;4.07;;;1.77;;
17310;SDS011;8773;43.300;0.394;2024-02-23T02:28:19;3.30;;;1.57;;
17310;SDS011;8773;43.300;0.394;2024-02-23T02:30:46;6.00;;;1.60;;
17310;SDS011;8773;43.300;0.394;2024-02-23T02:33:15;2.93;;;1.50;;
17310;SDS011;8773;43.300;0.394;2024-02-23T02:35:42;2.73;;;1.60;;
17310;SDS011;8773;43.300;0.394;2024-02-23T02:38:10;4.20;;;1.60;;
17310;SDS011;8773;43.300;0.394;2024-02-23T02:40:38;2.00;;;1.20;;
17310;SDS011;8773;43.300;0.394;2024-02-23T02:43:06;4.17;;;1.50;;
17310;SDS011;8773;43.300;0.394;2024-02-23T02:45:34;3.03;;;1.87;;
17310;SDS011;8773;43.300;0.394;2024-02-23T02:48:02;3.17;;;1.33;;
17310;SDS011;8773;43.300;0.394;2024-02-23T02:50:30;2.07;;;1.50;;
17310;SDS011;8773;43.300;0.394;2024-02-23T02:52:58;3.53;;;1.70;;
17310;SDS011;8773;43.300;0.394;2024-02-23T02:55:25;2.47;;;1.40;;
17310;SDS011;8773;43.300;0.394;2024-02-23T02:57:53;3.97;;;1.80;;
17310;SDS011;8773;43.300;0.394;2024-02-23T03:00:22;3.67;;;1.53;;
17310;SDS011;8773;43.300;0.394;2024-02-23T03:02:50;5.07;;;1.70;;
17310;SDS011;8773;43.300;0.394;2024-02-23T03:05:17;2.17;;;1.80;;
17310;SDS011;8773;43.300;0.394;2024-02-23T03:07:44;3.43;;;1.80;;
17310;SDS011;8773;43.300;0.394;2024-02-23T03:10:12;2.63;;;1.90;;
17310;SDS011;8773;43.300;0.394;2024-02-23T03:12:39;1.60;;;1.50;;
17310;SDS011;8773;43.300;0.394;2024-02-23T03:15:07;3.47;;;2.00;;
17310;SDS011;8773;43.300;0.394;2024-02-23T03:17:36;2.67;;;1.70;;
17310;SDS011;8773;43.300;0.394;2024-02-23T03:20:04;2.77;;;1.77;;
17310;SDS011;8773;43.300;0.394;2024-02-23T03:22:32;4.07;;;1.80;;
17310;SDS011;8773;43.300;0.394;2024-02-23T03:24:59;3.83;;;1.60;;
17310;SDS011;8773;43.300;0.394;2024-02-23T03:27:27;2.40;;;1.50;;
17310;SDS011;8773;43.300;0.394;2024-02-23T03:29:55;3.77;;;1.90;;
17310;SDS011;8773;43.300;0.394;2024-02-23T03:32:23;4.33;;;1.70;;
17310;SDS011;8773;43.300;0.394;2024-02-23T03:34:51;3.73;;;2.23;;
17310;SDS011;8773;43.300;0.394;2024-02-23T03:37:19;4.03;;;2.30;;
17310;SDS011;8773;43.300;0.394;2024-02-23T03:39:46;3.73;;;1.83;;
17310;SDS011;8773;43.300;0.394;2024-02-23T03:42:14;5.97;;;2.03;;
17310;SDS011;8773;43.300;0.394;2024-02-23T03:44:41;4.57;;;2.00;;
17310;SDS011;8773;43.300;0.394;2024-02-23T03:47:08;3.67;;;2.17;;
17310;SDS011;8773;43.300;0.394;2024-02-23T03:49:36;5.03;;;2.10;;
17310;SDS011;8773;43.300;0.394;2024-02-23T03:52:05;3.47;;;2.20;;
17310;SDS011;8773;43.300;0.394;2024-02-23T03:54:32;4.73;;;2.20;;
17310;SDS011;8773;43.300;0.394;2024-02-23T03:57:00;4.07;;;2.00;;
17310;SDS011;8773;43.300;0.394;2024-02-23T03:59:27;2.80;;;2.13;;
17310;SDS011;8773;43.300;0.394;2024-02-23T04:01:54;5.60;;;2.00;;
17310;SDS011;8773;43.300;0.394;2024-02-23T04:04:22;2.53;;;1.80;;
17310;SDS011;8773;43.300;0.394;2024-02-23T04:06:49;3.70;;;2.10;;
17310;SDS011;8773;43.300;0.394;2024-02-23T04:09:18;4.33;;;2.03;;
17310;SDS011;8773;43.300;0.394;2024-02-23T04:11:47;3.33;;;1.67;;
17310;SDS011;8773;43.300;0.394;2024-02-23T04:14:14;6.37;;;2.00;;
17310;SDS011;8773;43.300;0.394;2024-02-23T04:16:41;2.87;;;2.57;;
17310;SDS011;8773;43.300;0.394;2024-02-23T04:19:09;4.83;;;2.07;;
17310;SDS011;8773;43.300;0.394;2024-02-23T04:21:39;5.27;;;2.03;;
17310;SDS011;8773;43.300;0.394;2024-02-23T04:24:06;4.10;;;2.20;;
17310;SDS011;8773;43.300;0.394;2024-02-23T04:26:35;6.07;;;2.10;;
17310;SDS011;8773;43.300;0.394;2024-02-23T04:29:03;4.17;;;2.23;;
17310;SDS011;8773;43.300;0.394;2024-02-23T04:31:30;5.80;;;2.10;;
17310;SDS011;8773;43.300;0.394;2024-02-23T04:33:58;4.47;;;2.27;;
17310;SDS011;8773;43.300;0.394;2024-02-23T04:36:25;4.93;;;2.63;;
17310;SDS011;8773;43.300;0.394;2024-02-23T04:38:52;2.97;;;1.87;;
17310;SDS011;8773;43.300;0.394;2024-02-23T04:41:20;5.43;;;2.33;;
17310;SDS011;8773;43.300;0.394;2024-02-23T04:43:49;3.00;;;2.07;;
17310;SDS011;8773;43.300;0.394;2024-02-23T04:46:16;5.20;;;2.43;;
17310;SDS011;8773;43.300;0.394;2024-02-23T04:48:43;4.17;;;2.03;;
17310;SDS011;8773;43.300;0.394;2024-02-23T04:51:11;4.97;;;2.20;;
17310;SDS011;8773;43.300;0.394;2024-02-23T04:53:38;4.43;;;2.70;;
17310;SDS011;8773;43.300;0.394;2024-02-23T04:56:05;4.67;;;2.20;;
17310;SDS011;8773;43.300;0.394;2024-02-23T04:58:33;3.43;;;2.20;;
17310;SDS011;8773;43.300;0.394;2024-02-23T05:01:02;4.73;;;2.27;;
17310;SDS011;8773;43.300;0.394;2024-02-23T05:03:29;4.90;;;2.60;;
17310;SDS011;8773;43.300;0.394;2024-02-23T05:05:57;5.57;;;2.17;;
17310;SDS011;8773;43.300;0.394;2024-02-23T05:08:24;4.87;;;2.53;;
17310;SDS011;8773;43.300;0.394;2024-02-23T05:10:52;4.97;;;1.97;;
17310;SDS011;8773;43.300;0.394;2024-02-23T05:13:19;3.23;;;2.20;;
17310;SDS011;8773;43.300;0.394;2024-02-23T05:15:46;7.90;;;2.57;;
17310;SDS011;8773;43.300;0.394;2024-02-23T05:18:15;4.70;;;3.13;;
17310;SDS011;8773;43.300;0.394;2024-02-23T05:20:43;3.67;;;2.93;;
17310;SDS011;8773;43.300;0.394;2024-02-23T05:23:10;4.17;;;2.53;;
17310;SDS011;8773;43.300;0.394;2024-02-23T05:25:38;5.73;;;2.67;;
17310;SDS011;8773;43.300;0.394;2024-02-23T05:28:05;5.43;;;2.80;;
17310;SDS011;8773;43.300;0.394;2024-02-23T05:30:32;4.77;;;2.50;;
17310;SDS011;8773;43.300;0.394;2024-02-23T05:33:00;5.83;;;2.70;;
17310;SDS011;8773;43.300;0.394;2024-02-23T05:35:29;5.07;;;2.40;;
17310;SDS011;8773;43.300;0.394;2024-02-23T05:37:56;2.53;;;2.33;;
17310;SDS011;8773;43.300;0.394;2024-02-23T05:40:23;5.97;;;2.40;;
17310;SDS011;8773;43.300;0.394;2024-02-23T05:42:51;2.80;;;2.30;;
17310;SDS011;8773;43.300;0.394;2024-02-23T05:45:18;4.13;;;3.07;;
17310;SDS011;8773;43.300;0.394;2024-02-23T05:47:46;4.73;;;2.50;;
17310;SDS011;8773;43.300;0.394;2024-02-23T05:50:14;7.47;;;2.90;;
17310;SDS011;8773;43.300;0.394;2024-02-23T05:52:43;5.10;;;2.40;;
17310;SDS011;8773;43.300;0.394;2024-02-23T05:55:11;5.20;;;2.67;;
17310;SDS011;8773;43.300;0.394;2024-02-23T05:57:38;4.80;;;2.47;;
17310;SDS011;8773;43.300;0.394;2024-02-23T06:00:06;5.97;;;2.43;;
17310;SDS011;8773;43.300;0.394;2024-02-23T06:02:34;5.97;;;2.97;;
17310;SDS011;8773;43.300;0.394;2024-02-23T06:05:01;6.43;;;2.63;;
17310;SDS011;8773;43.300;0.394;2024-02-23T06:07:29;5.03;;;3.10;;
17310;SDS011;8773;43.300;0.394;2024-02-23T06:09:58;3.13;;;2.63;;
17310;SDS011;8773;43.300;0.394;2024-02-23T06:12:25;4.43;;;3.00;;
17310;SDS011;8773;43.300;0.394;2024-02-23T06:14:52;5.27;;;3.33;;
17310;SDS011;8773;43.300;0.394;2024-02-23T06:17:20;6.07;;;2.97;;
17310;SDS011;8773;43.300;0.394;2024-02-23T06:19:47;6.23;;;2.90;;
17310;SDS011;8773;43.300;0.394;2024-02-23T06:22:15;7.00;;;3.43;;
17310;SDS011;8773;43.300;0.394;2024-02-23T06:24:42;7.10;;;3.27;;
17310;SDS011;8773;43.300;0.394;2024-02-23T06:27:11;4.70;;;4.30;;
17310;SDS011;8773;43.300;0.394;2024-02-23T06:29:38;6.43;;;4.23;;
17310;SDS011;8773;43.300;0.394;2024-02-23T06:32:06;7.90;;;3.73;;
17310;SDS011;8773;43.300;0.394;2024-02-23T06:34:33;7.37;;;3.93;;
17310;SDS011;8773;43.300;0.394;2024-02-23T06:37:01;6.77;;;3.13;;
17310;SDS011;8773;43.300;0.394;2024-02-23T06:39:28;8.03;;;4.63;;
17310;SDS011;8773;43.300;0.394;2024-02-23T06:41:55;8.03;;;3.80;;
17310;SDS011;8773;43.300;0.394;2024-02-23T06:44:24;8.20;;;3.60;;
17310;SDS011;8773;43.300;0.394;2024-02-23T06:46:52;8.53;;;3.73;;
17310;SDS011;8773;43.300;0.394;2024-02-23T06:49:19;5.97;;;3.57;;
17310;SDS011;8773;43.300;0.394;2024-02-23T06:51:46;4.90;;;3.07;;
17310;SDS011;8773;43.300;0.394;2024-02-23T06:54:14;6.43;;;3.73;;
17310;SDS011;8773;43.300;0.394;2024-02-23T06:56:41;5.90;;;3.30;;
17310;SDS011;8773;43.300;0.394;2024-02-23T06:59:08;7.40;;;3.73;;
17310;SDS011;8773;43.300;0.394;2024-02-23T07:01:37;6.57;;;4.40;;
17310;SDS011;8773;43.300;0.394;2024-02-23T07:04:14;5.20;;;4.40;;
17310;SDS011;8773;43.300;0.394;2024-02-23T07:06:42;4.90;;;3.50;;
17310;SDS011;8773;43.300;0.394;2024-02-23T07:09:10;5.63;;;3.43;;
17310;SDS011;8773;43.300;0.394;2024-02-23T07:11:37;4.37;;;3.13;;
17310;SDS011;8773;43.300;0.394;2024-02-23T07:14:05;4.27;;;3.37;;
17310;SDS011;8773;43.300;0.394;2024-02-23T07:16:33;6.17;;;3.33;;
17310;SDS011;8773;43.300;0.394;2024-02-23T07:19:01;7.07;;;3.70;;
17310;SDS011;8773;43.300;0.394;2024-02-23T07:21:29;7.00;;;3.67;;
17310;SDS011;8773;43.300;0.394;2024-02-23T07:23:56;6.27;;;3.50;;
17310;SDS011;8773;43.300;0.394;2024-02-23T07:26:23;7.23;;;3.27;;
17310;SDS011;8773;43.300;0.394;2024-02-23T07:28:51;4.53;;;3.00;;
17310;SDS011;8773;43.300;0.394;2024-02-23T07:31:18;7.20;;;3.20;;
17310;SDS011;8773;43.300;0.394;2024-02-23T07:33:46;4.87;;;3.00;;
17310;SDS011;8773;43.300;0.394;2024-02-23T07:36:15;3.03;;;2.73;;
17310;SDS011;8773;43.300;0.394;2024-02-23T07:38:42;6.00;;;2.47;;
17310;SDS011;8773;43.300;0.394;2024-02-23T07:41:10;4.03;;;2.70;;
17310;SDS011;8773;43.300;0.394;2024-02-23T07:43:38;2.83;;;2.47;;
17310;SDS011;8773;43.300;0.394;2024-02-23T07:46:05;3.67;;;2.33;;
17310;SDS011;8773;43.300;0.394;2024-02-23T07:48:32;4.07;;;2.20;;
17310;SDS011;8773;43.300;0.394;2024-02-23T07:51:00;2.63;;;2.30;;
17310;SDS011;8773;43.300;0.394;2024-02-23T07:53:29;4.90;;;2.80;;
17310;SDS011;8773;43.300;0.394;2024-02-23T07:55:56;5.23;;;2.40;;
17310;SDS011;8773;43.300;0.394;2024-02-23T07:58:24;6.03;;;5.07;;
17310;SDS011;8773;43.300;0.394;2024-02-23T08:00:51;7.67;;;5.40;;
17310;SDS011;8773;43.300;0.394;2024-02-23T08:03:19;7.23;;;4.27;;
17310;SDS011;8773;43.300;0.394;2024-02-23T08:05:46;3.23;;;2.90;;
17310;SDS011;8773;43.300;0.394;2024-02-23T08:08:14;4.60;;;2.40;;
17310;SDS011;8773;43.300;0.394;2024-02-23T08:10:43;3.57;;;2.53;;
17310;SDS011;8773;43.300;0.394;2024-02-23T08:13:11;5.27;;;2.50;;
17310;SDS011;8773;43.300;0.394;2024-02-23T08:15:38;4.40;;;2.20;;
17310;SDS011;8773;43.300;0.394;2024-02-23T08:18:05;2.93;;;2.50;;
17310;SDS011;8773;43.300;0.394;2024-02-23T08:20:33;4.77;;;3.17;;
17310;SDS011;8773;43.300;0.394;2024-02-23T08:23:00;2.60;;;2.40;;
17310;SDS011;8773;43.300;0.394;2024-02-23T08:25:28;3.63;;;2.40;;
17310;SDS011;8773;43.300;0.394;2024-02-23T08:27:56;3.77;;;1.97;;
17310;SDS011;8773;43.300;0.394;2024-02-23T08:30:24;2.07;;;1.87;;
17310;SDS011;8773;43.300;0.394;2024-02-23T08:32:51;2.93;;;1.60;;
17310;SDS011;8773;43.300;0.394;2024-02-23T08:35:19;2.07;;;1.70;;
17310;SDS011;8773;43.300;0.394;2024-02-23T08:37:46;2.87;;;1.37;;
17310;SDS011;8773;43.300;0.394;2024-02-23T08:40:13;4.20;;;1.50;;
17310;SDS011;8773;43.300;0.394;2024-02-23T08:42:41;1.37;;;1.27;;
17310;SDS011;8773;43.300;0.394;2024-02-23T08:45:10;1.50;;;1.40;;
17310;SDS011;8773;43.300;0.394;2024-02-23T08:47:37;1.57;;;1.47;;
17310;SDS011;8773;43.300;0.394;2024-02-23T08:50:05;2.50;;;1.73;;
17310;SDS011;8773;43.300;0.394;2024-02-23T08:52:33;1.33;;;1.27;;
17310;SDS011;8773;43.300;0.394;2024-02-23T08:55:01;1.00;;;1.00;;
17310;SDS011;8773;43.300;0.394;2024-02-23T08:57:28;2.33;;;1.33;;
17310;SDS011;8773;43.300;0.394;2024-02-23T08:59:55;2.00;;;1.40;;
17310;SDS011;8773;43.300;0.394;2024-02-23T09:02:24;1.33;;;1.23;;
17310;SDS011;8773;43.300;0.394;2024-02-23T09:04:52;5.47;;;1.53;;
17310;SDS011;8773;43.300;0.394;2024-02-23T09:07:19;2.07;;;1.47;;
17310;SDS011;8773;43.300;0.394;2024-02-23T09:09:47;1.40;;;1.30;;
17310;SDS011;8773;43.300;0.394;2024-02-23T09:12:14;1.50;;;1.40;;
17310;SDS011;8773;43.300;0.394;2024-02-23T09:14:42;1.60;;;1.23;;
17310;SDS011;8773;43.300;0.394;2024-02-23T09:17:09;1.50;;;1.50;;
17310;SDS011;8773;43.300;0.394;2024-02-23T09:19:38;1.60;;;1.40;;
17310;SDS011;8773;43.300;0.394;2024-02-23T09:22:06;1.20;;;1.20;;
17310;SDS011;8773;43.300;0.394;2024-02-23T09:24:33;2.17;;;1.20;;
17310;SDS011;8773;43.300;0.394;2024-02-23T09:27:00;1.70;;;1.67;;
17310;SDS011;8773;43.300;0.394;2024-02-23T09:29:28;2.40;;;2.10;;
17310;SDS011;8773;43.300;0.394;2024-02-23T09:31:55;1.13;;;1.10;;
17310;SDS011;8773;43.300;0.394;2024-02-23T09:34:23;1.03;;;1.03;;
17310;SDS011;8773;43.300;0.394;2024-02-23T09:36:51;1.77;;;1.30;;
17310;SDS011;8773;43.300;0.394;2024-02-23T09:39:19;1.30;;;1.27;;
17310;SDS011;8773;43.300;0.394;2024-02-23T09:41:47;1.30;;;1.20;;
17310;SDS011;8773;43.300;0.394;2024-02-23T09:44:17;1.10;;;0.93;;
17310;SDS011;8773;43.300;0.394;2024-02-23T09:46:45;1.53;;;1.40;;
17310;SDS011;8773;43.300;0.394;2024-02-23T09:49:13;1.20;;;1.20;;
17310;SDS011;8773;43.300;0.394;2024-02-23T09:51:42;1.13;;;1.03;;
17310;SDS011;8773;43.300;0.394;2024-02-23T09:54:11;2.27;;;1.40;;
17310;SDS011;8773;43.300;0.394;2024-02-23T09:56:38;1.60;;;1.37;;
17310;SDS011;8773;43.300;0.394;2024-02-23T09:59:06;1.50;;;1.40;;
17310;SDS011;8773;43.300;0.394;2024-02-23T10:01:34;1.90;;;1.40;;
17310;SDS011;8773;43.300;0.394;2024-02-23T10:04:01;0.83;;;0.83;;
17310;SDS011;8773;43.300;0.394;2024-02-23T10:06:29;1.33;;;1.00;;
17310;SDS011;8773;43.300;0.394;2024-02-23T10:08:56;1.00;;;0.90;;
17310;SDS011;8773;43.300;0.394;2024-02-23T10:11:25;1.43;;;1.37;;
17310;SDS011;8773;43.300;0.394;2024-02-23T10:13:53;1.23;;;0.83;;
17310;SDS011;8773;43.300;0.394;2024-02-23T10:16:21;1.33;;;1.00;;
17310;SDS011;8773;43.300;0.394;2024-02-23T10:18:49;1.43;;;0.97;;
17310;SDS011;8773;43.300;0.394;2024-02-23T10:21:17;1.43;;;1.03;;
17310;SDS011;8773;43.300;0.394;2024-02-23T10:23:44;1.83;;;1.07;;
17310;SDS011;8773;43.300;0.394;2024-02-23T10:26:12;2.23;;;1.53;;
17310;SDS011;8773;43.300;0.394;2024-02-23T10:28:41;1.20;;;1.10;;
17310;SDS011;8773;43.300;0.394;2024-02-23T10:31:08;2.03;;;1.30;;
17310;SDS011;8773;43.300;0.394;2024-02-23T10:33:39;1.40;;;1.30;;
17310;SDS011;8773;43.300;0.394;2024-02-23T10:36:07;1.50;;;1.40;;
17310;SDS011;8773;43.300;0.394;2024-02-23T10:38:37;1.50;;;1.40;;
17310;SDS011;8773;43.300;0.394;2024-02-23T10:41:05;1.67;;;1.57;;
17310;SDS011;8773;43.300;0.394;2024-02-23T10:43:33;2.30;;;1.47;;
17310;SDS011;8773;43.300;0.394;2024-02-23T10:46:09;1.10;;;1.07;;
17310;SDS011;8773;43.300;0.394;2024-02-23T10:48:38;1.60;;;1.00;;
17310;SDS011;8773;43.300;0.394;2024-02-23T10:51:07;2.10;;;1.30;;
17310;SDS011;8773;43.300;0.394;2024-02-23T10:53:37;1.70;;;1.30;;
17310;SDS011;8773;43.300;0.394;2024-02-23T10:56:07;1.20;;;1.10;;
17310;SDS011;8773;43.300;0.394;2024-02-23T10:58:34;2.43;;;1.13;;
17310;SDS011;8773;43.300;0.394;2024-02-23T11:01:03;1.53;;;1.20;;
17310;SDS011;8773;43.300;0.394;2024-02-23T11:03:36;2.03;;;1.77;;
17310;SDS011;8773;43.300;0.394;2024-02-23T11:06:05;1.60;;;1.50;;
17310;SDS011;8773;43.300;0.394;2024-02-23T11:08:33;1.07;;;1.07;;
17310;SDS011;8773;43.300;0.394;2024-02-23T11:11:06;1.57;;;1.47;;
17310;SDS011;8773;43.300;0.394;2024-02-23T11:13:35;1.27;;;1.03;;
17310;SDS011;8773;43.300;0.394;2024-02-23T11:16:03;1.50;;;1.40;;
17310;SDS011;8773;43.300;0.394;2024-02-23T11:18:31;1.23;;;1.20;;
17310;SDS011;8773;43.300;0.394;2024-02-23T11:21:03;1.87;;;1.40;;
17310;SDS011;8773;43.300;0.394;2024-02-23T11:23:39;1.70;;;1.50;;
17310;SDS011;8773;43.300;0.394;2024-02-23T11:26:09;1.80;;;1.07;;
17310;SDS011;8773;43.300;0.394;2024-02-23T11:28:43;2.13;;;1.50;;
17310;SDS011;8773;43.300;0.394;2024-02-23T11:31:14;1.93;;;1.20;;
17310;SDS011;8773;43.300;0.394;2024-02-23T11:33:47;1.73;;;1.20;;
17310;SDS011;8773;43.300;0.394;2024-02-23T11:36:23;1.40;;;1.17;;
17310;SDS011;8773;43.300;0.394;2024-02-23T11:38:52;1.50;;;1.40;;
17310;SDS011;8773;43.300;0.394;2024-02-23T11:41:20;1.57;;;1.47;;
17310;SDS011;8773;43.300;0.394;2024-02-23T11:43:48;1.37;;;1.30;;
17310;SDS011;8773;43.300;0.394;2024-02-23T11:46:16;3.03;;;1.73;;
17310;SDS011;8773;43.300;0.394;2024-02-23T11:48:43;1.73;;;1.53;;
17310;SDS011;8773;43.300;0.394;2024-02-23T11:51:11;4.37;;;1.77;;
17310;SDS011;8773;43.300;0.394;2024-02-23T11:53:40;1.87;;;1.27;;
17310;SDS011;8773;43.300;0.394;2024-02-23T11:56:07;4.33;;;2.60;;
17310;SDS011;8773;43.300;0.394;2024-02-23T11:58:35;2.57;;;1.90;;
17310;SDS011;8773;43.300;0.394;2024-02-23T12:01:02;3.77;;;1.53;;
17310;SDS011;8773;43.300;0.394;2024-02-23T12:03:30;2.20;;;1.10;;
17310;SDS011;8773;43.300;0.394;2024-02-23T12:05:58;1.57;;;1.20;;
17310;SDS011;8773;43.300;0.394;2024-02-23T12:08:26;1.20;;;1.10;;
17310;SDS011;8773;43.300;0.394;2024-02-23T12:10:56;2.20;;;1.30;;
17310;SDS011;8773;43.300;0.394;2024-02-23T12:13:24;0.97;;;0.90;;
17310;SDS011;8773;43.300;0.394;2024-02-23T12:15:52;2.33;;;1.60;;
17310;SDS011;8773;43.300;0.394;2024-02-23T12:18:21;1.53;;;1.17;;
17310;SDS011;8773;43.300;0.394;2024-02-23T12:20:48;1.33;;;1.27;;
17310;SDS011;8773;43.300;0.394;2024-02-23T12:23:16;1.53;;;1.10;;
17310;SDS011;8773;43.300;0.394;2024-02-23T12:25:51;0.90;;;0.90;;
17310;SDS011;8773;43.300;0.394;2024-02-23T12:28:21;2.10;;;1.20;;
17310;SDS011;8773;43.300;0.394;2024-02-23T12:30:57;1.63;;;1.10;;
17310;SDS011;8773;43.300;0.394;2024-02-23T12:33:26;1.33;;;1.10;;
17310;SDS011;8773;43.300;0.394;2024-02-23T12:35:54;0.90;;;0.90;;
17310;SDS011;8773;43.300;0.394;2024-02-23T12:38:22;0.70;;;0.70;;
17310;SDS011;8773;43.300;0.394;2024-02-23T12:40:50;3.40;;;1.20;;
17310;SDS011;8773;43.300;0.394;2024-02-23T12:43:17;2.40;;;1.13;;
17310;SDS011;8773;43.300;0.394;2024-02-23T12:45:46;1.70;;;1.00;;
17310;SDS011;8773;43.300;0.394;2024-02-23T12:48:14;1.47;;;0.83;;
17310;SDS011;8773;43.300;0.394;2024-02-23T12:50:41;0.93;;;0.90;;
17310;SDS011;8773;43.300;0.394;2024-02-23T12:53:09;1.50;;;0.90;;
17310;SDS011;8773;43.300;0.394;2024-02-23T12:55:36;0.83;;;0.83;;
17310;SDS011;8773;43.300;0.394;2024-02-23T12:58:04;0.83;;;0.83;;
17310;SDS011;8773;43.300;0.394;2024-02-23T13:00:31;1.07;;;1.07;;
17310;SDS011;8773;43.300;0.394;2024-02-23T13:03:00;0.90;;;0.90;;
17310;SDS011;8773;43.300;0.394;2024-02-23T13:05:27;1.20;;;1.10;;
17310;SDS011;8773;43.300;0.394;2024-02-23T13:07:55;1.60;;;1.00;;
17310;SDS011;8773;43.300;0.394;2024-02-23T13:10:22;1.03;;;0.93;;
17310;SDS011;8773;43.300;0.394;2024-02-23T13:12:49;1.10;;;1.10;;
17310;SDS011;8773;43.300;0.394;2024-02-23T13:15:17;1.93;;;1.50;;
17310;SDS011;8773;43.300;0.394;2024-02-23T13:17:47;1.63;;;1.53;;
17310;SDS011;8773;43.300;0.394;2024-02-23T13:20:16;1.30;;;1.30;;
17310;SDS011;8773;43.300;0.394;2024-02-23T13:22:43;2.80;;;1.57;;
17310;SDS011;8773;43.300;0.394;2024-02-23T13:25:11;1.50;;;1.40;;
17310;SDS011;8773;43.300;0.394;2024-02-23T13:27:38;2.43;;;1.60;;
17310;SDS011;8773;43.300;0.394;2024-02-23T13:30:06;2.00;;;1.90;;
17310;SDS011;8773;43.300;0.394;2024-02-23T13:32:34;1.90;;;1.80;;
17310;SDS011;8773;43.300;0.394;2024-02-23T13:35:02;2.23;;;2.10;;
17310;SDS011;8773;43.300;0.394;2024-02-23T13:37:31;1.80;;;1.70;;
17310;SDS011;8773;43.300;0.394;2024-02-23T13:39:58;2.50;;;1.67;;
17310;SDS011;8773;43.300;0.394;2024-02-23T13:42:26;1.60;;;1.50;;
17310;SDS011;8773;43.300;0.394;2024-02-23T13:44:53;2.20;;;1.60;;
17310;SDS011;8773;43.300;0.394;2024-02-23T13:47:22;2.50;;;1.97;;
17310;SDS011;8773;43.300;0.394;2024-02-23T13:49:49;1.50;;;1.33;;
17310;SDS011;8773;43.300;0.394;2024-02-23T13:52:17;1.50;;;1.40;;
17310;SDS011;8773;43.300;0.394;2024-02-23T13:54:45;3.43;;;1.93;;
17310;SDS011;8773;43.300;0.394;2024-02-23T13:57:13;3.50;;;1.90;;
17310;SDS011;8773;43.300;0.394;2024-02-23T13:59:40;1.70;;;1.60;;
17310;SDS011;8773;43.300;0.394;2024-02-23T14:02:07;1.70;;;1.60;;
17310;SDS011;8773;43.300;0.394;2024-02-23T14:04:35;2.27;;;1.63;;
17310;SDS011;8773;43.300;0.394;2024-02-23T14:07:03;2.17;;;1.70;;
17310;SDS011;8773;43.300;0.394;2024-02-23T14:09:30;2.67;;;1.70;;
17310;SDS011;8773;43.300;0.394;2024-02-23T14:11:59;2.47;;;1.70;;
17310;SDS011;8773;43.300;0.394;2024-02-23T14:14:27;2.30;;;1.50;;
17310;SDS011;8773;43.300;0.394;2024-02-23T14:16:54;2.53;;;1.73;;
17310;SDS011;8773;43.300;0.394;2024-02-23T14:19:22;1.50;;;1.40;;
17310;SDS011;8773;43.300;0.394;2024-02-23T14:21:49;2.87;;;1.60;;
17310;SDS011;8773;43.300;0.394;2024-02-23T14:24:16;1.60;;;1.50;;
17310;SDS011;8773;43.300;0.394;2024-02-23T14:26:44;1.40;;;1.30;;
17310;SDS011;8773;43.300;0.394;2024-02-23T14:29:12;1.97;;;1.53;;
17310;SDS011;8773;43.300;0.394;2024-02-23T14:31:40;1.37;;;1.20;;
17310;SDS011;8773;43.300;0.394;2024-02-23T14:34:07;2.93;;;1.60;;
17310;SDS011;8773;43.300;0.394;2024-02-23T14:36:35;2.53;;;1.80;;
17310;SDS011;8773;43.300;0.394;2024-02-23T14:39:02;4.83;;;2.30;;
17310;SDS011;8773;43.300;0.394;2024-02-23T14:41:29;2.60;;;2.37;;
17310;SDS011;8773;43.300;0.394;2024-02-23T14:43:57;2.60;;;1.70;;
17310;SDS011;8773;43.300;0.394;2024-02-23T14:46:26;2.30;;;1.50;;
17310;SDS011;8773;43.300;0.394;2024-02-23T14:48:53;1.57;;;1.47;;
17310;SDS011;8773;43.300;0.394;2024-02-23T14:51:20;1.77;;;1.60;;
17310;SDS011;8773;43.300;0.394;2024-02-23T14:53:48;3.77;;;2.87;;
17310;SDS011;8773;43.300;0.394;2024-02-23T14:56:15;2.10;;;1.93;;
17310;SDS011;8773;43.300;0.394;2024-02-23T14:58:43;1.97;;;1.50;;
17310;SDS011;8773;43.300;0.394;2024-02-23T15:01:10;1.50;;;1.40;;
17310;SDS011;8773;43.300;0.394;2024-02-23T15:03:40;2.93;;;1.63;;